Schneifelwetter: Wetterstation Hallschlag, 537 m . NN
Wetterdaten: Donnerstag, 29.11.2012
Datum Zeit Temp. A. Feuchte A. Luftdruck Regen Wind Richtung Richtung Sonnenschein T Regen Taupunkt Windchill
29.11.2012 00:01 1,4 C 97 % 1001 hPa 0,0 l/m 35,4 km/h (5 Bft) N-NO45 15 0 min 0 min 1,0 C -12,9 C
29.11.2012 00:16 1,4 C 97 % 1001 hPa 0,0 l/m 37,9 km/h (5 Bft) N67.5 360 0 min 0 min 1,0 C -13,4 C
29.11.2012 00:31 1,4 C 96 % 1001 hPa 0,0 l/m 30,5 km/h (5 Bft) N-NO67.5 15 0 min 0 min 0,8 C -11,6 C
29.11.2012 00:46 1,5 C 97 % 1001 hPa 0,0 l/m 29,5 km/h (5 Bft) N45 10 0 min 0 min 1,1 C -11,2 C
29.11.2012 01:01 1,5 C 97 % 1001 hPa 0,0 l/m 27,8 km/h (4 Bft) N67.5 10 0 min 0 min 1,1 C -10,6 C
29.11.2012 01:16 1,5 C 97 % 1001 hPa 0,0 l/m 32,7 km/h (5 Bft) N22.5 5 0 min 0 min 1,1 C -12,0 C
29.11.2012 01:24 1,5 C 96 % 1001 hPa 0,0 l/m 28,1 km/h (4 Bft) N45 5 0 min 0 min 0,9 C -10,7 C
29.11.2012 01:39 1,5 C 96 % 1000 hPa 0,0 l/m 33,2 km/h (5 Bft) N45 10 0 min 0 min 0,9 C -12,2 C
29.11.2012 01:54 1,5 C 97 % 1000 hPa 0,3 l/m 24,2 km/h (4 Bft) N-NO67.5 15 0 min 15 min 1,1 C -9,4 C
29.11.2012 02:09 1,3 C 96 % 1000 hPa 0,0 l/m 29,5 km/h (5 Bft) N45 360 0 min 0 min 0,7 C -11,4 C
29.11.2012 02:24 1,3 C 96 % 1000 hPa 0,0 l/m 28,3 km/h (4 Bft) N45 10 0 min 0 min 0,7 C -11,1 C
29.11.2012 02:39 1,3 C 96 % 1000 hPa 0,0 l/m 27,2 km/h (4 Bft) N22.5 10 0 min 0 min 0,7 C -10,7 C
29.11.2012 02:54 1,3 C 96 % 1000 hPa 0,0 l/m 29,1 km/h (5 Bft) N-NO67.5 20 0 min 0 min 0,7 C -11,3 C
29.11.2012 03:09 1,2 C 96 % 1000 hPa 0,0 l/m 32,4 km/h (5 Bft) N67.5 350 0 min 0 min 0,6 C -12,4 C
29.11.2012 03:24 1,3 C 96 % 1000 hPa 0,0 l/m 23,3 km/h (4 Bft) N45 360 0 min 0 min 0,7 C -9,3 C
29.11.2012 03:39 1,2 C 96 % 1000 hPa 0,0 l/m 34,0 km/h (5 Bft) N67.5 350 0 min 0 min 0,6 C -12,8 C
29.11.2012 03:54 1,2 C 96 % 1000 hPa 0,0 l/m 37,4 km/h (5 Bft) N-NO67.5 25 0 min 0 min 0,6 C -13,6 C
29.11.2012 04:09 1,0 C 96 % 1000 hPa 0,0 l/m 29,1 km/h (5 Bft) N67.5 355 0 min 0 min 0,4 C -11,7 C
29.11.2012 04:24 0,9 C 96 % 1000 hPa 0,0 l/m 27,6 km/h (4 Bft) N67.5 355 0 min 0 min 0,3 C -11,4 C
29.11.2012 04:39 0,6 C 95 % 1000 hPa 0,0 l/m 27,1 km/h (4 Bft) N-NW45 345 0 min 0 min -0,1 C -11,6 C
29.11.2012 04:54 0,4 C 96 % 1000 hPa 0,0 l/m 24,9 km/h (4 Bft) N67.5 5 0 min 0 min -0,2 C -11,1 C
29.11.2012 05:09 0,3 C 97 % 1000 hPa 0,0 l/m 35,2 km/h (5 Bft) N45 360 0 min 0 min -0,1 C -14,4 C
29.11.2012 05:24 0,2 C 96 % 1000 hPa 0,0 l/m 33,6 km/h (5 Bft) N67.5 355 0 min 0 min -0,4 C -14,1 C
29.11.2012 05:39 0,1 C 95 % 1000 hPa 0,0 l/m 37,5 km/h (5 Bft) N67.5 360 0 min 0 min -0,6 C -15,2 C
29.11.2012 05:54 -0,3 C 94 % 1000 hPa 0,0 l/m 29,1 km/h (5 Bft) N67.5 5 0 min 0 min -1,1 C -13,5 C
29.11.2012 06:09 -0,3 C 94 % 1000 hPa 0,0 l/m 31,8 km/h (5 Bft) N45 5 0 min 0 min -1,1 C -14,4 C
29.11.2012 06:24 -0,3 C 94 % 1000 hPa 0,0 l/m 37,1 km/h (5 Bft) N67.5 360 0 min 0 min -1,1 C -15,7 C
29.11.2012 06:39 -0,2 C 94 % 1000 hPa 0,0 l/m 29,6 km/h (5 Bft) N45 355 0 min 0 min -1,0 C -13,6 C
29.11.2012 06:54 -0,2 C 94 % 1000 hPa 0,0 l/m 27,9 km/h (4 Bft) N67.5 355 0 min 0 min -1,0 C -13,0 C
29.11.2012 07:09 0,0 C 94 % 1000 hPa 0,0 l/m 24,8 km/h (4 Bft) N-NO67.5 25 0 min 0 min -0,8 C -11,6 C
29.11.2012 07:24 0,0 C 92 % 1000 hPa 0,0 l/m 28,6 km/h (4 Bft) N45 5 0 min 0 min -1,1 C -13,0 C
29.11.2012 07:39 0,1 C 92 % 1000 hPa 0,0 l/m 27,5 km/h (4 Bft) N45 5 0 min 0 min -1,0 C -12,5 C
29.11.2012 07:54 0,0 C 91 % 1000 hPa 0,0 l/m 25,9 km/h (4 Bft) NW67.5 325 0 min 0 min -1,3 C -12,0 C
29.11.2012 08:09 -0,2 C 91 % 1001 hPa 0,0 l/m 26,9 km/h (4 Bft) N45 350 0 min 0 min -1,5 C -12,7 C
29.11.2012 08:24 -0,3 C 92 % 1001 hPa 0,0 l/m 19,5 km/h (3 Bft) N45 360 0 min 0 min -1,4 C -9,8 C
29.11.2012 08:39 -0,3 C 92 % 1001 hPa 0,0 l/m 25,8 km/h (4 Bft) N-NW22.5 345 0 min 0 min -1,4 C -12,4 C
29.11.2012 08:54 -0,3 C 92 % 1001 hPa 0,0 l/m 26,6 km/h (4 Bft) N-NW67.5 345 0 min 0 min -1,4 C -12,7 C
29.11.2012 09:09 -0,2 C 90 % 1001 hPa 0,0 l/m 37,1 km/h (5 Bft) N45 10 0 min 0 min -1,6 C -15,6 C
29.11.2012 09:24 0,0 C 90 % 1001 hPa 0,0 l/m 20,3 km/h (4 Bft) N-NW67.5 340 0 min 0 min -1,4 C -9,8 C
29.11.2012 09:39 0,1 C 90 % 1001 hPa 0,0 l/m 31,3 km/h (5 Bft) N-NW45 335 0 min 0 min -1,3 C -13,7 C
29.11.2012 09:54 0,1 C 89 % 1001 hPa 0,0 l/m 28,8 km/h (4 Bft) N45 350 0 min 0 min -1,5 C -12,9 C
29.11.2012 10:09 0,4 C 89 % 1001 hPa 0,0 l/m 24,8 km/h (4 Bft) N45 350 0 min 0 min -1,2 C -11,1 C
29.11.2012 10:24 0,7 C 88 % 1001 hPa 0,0 l/m 19,3 km/h (3 Bft) N45 360 0 min 0 min -1,1 C -8,4 C
29.11.2012 10:39 0,7 C 88 % 1001 hPa 0,0 l/m 18,8 km/h (3 Bft) N-NW67.5 335 0 min 0 min -1,1 C -8,2 C
29.11.2012 10:54 0,7 C 89 % 1001 hPa 0,0 l/m 13,9 km/h (3 Bft) N-NW22.5 340 0 min 0 min -0,9 C -5,5 C
29.11.2012 11:09 0,6 C 90 % 1001 hPa 0,0 l/m 18,5 km/h (3 Bft) NW45 310 0 min 0 min -0,8 C -8,1 C
29.11.2012 11:25 0,4 C 91 % 1001 hPa 0,0 l/m 7,0 km/h (2 Bft) N-NW67.5 340 0 min 0 min -0,9 C -0,2 C
29.11.2012 11:40 0,4 C 92 % 1001 hPa 0,0 l/m 1,5 km/h (1 Bft) N22.5 350 0 min 0 min -0,7 C 0,4 C
29.11.2012 11:55 0,5 C 93 % 1001 hPa 0,0 l/m 14,3 km/h (3 Bft) N22.5 350 0 min 0 min -0,5 C -6,0 C
29.11.2012 12:10 0,7 C 92 % 1001 hPa 0,0 l/m 32,4 km/h (5 Bft) N-NW45 335 0 min 0 min -0,4 C -13,1 C
29.11.2012 12:25 0,8 C 92 % 1001 hPa 0,0 l/m 26,5 km/h (4 Bft) NW45 310 0 min 0 min -0,3 C -11,2 C
29.11.2012 12:40 1,0 C 92 % 1001 hPa 0,0 l/m 23,6 km/h (4 Bft) N-NW67.5 345 0 min 0 min -0,2 C -9,8 C
29.11.2012 12:55 1,1 C 92 % 1001 hPa 0,0 l/m 20,2 km/h (4 Bft) N-NW45 345 0 min 0 min -0,1 C -8,3 C
29.11.2012 13:10 1,1 C 91 % 1001 hPa 0,0 l/m 23,3 km/h (4 Bft) N-NW45 330 0 min 0 min -0,2 C -9,6 C
29.11.2012 13:25 1,0 C 91 % 1001 hPa 0,0 l/m 24,2 km/h (4 Bft) N-NW45 335 0 min 0 min -0,3 C -10,1 C
29.11.2012 13:40 0,9 C 91 % 1001 hPa 0,0 l/m 21,6 km/h (4 Bft) NW67.5 320 0 min 0 min -0,4 C -9,2 C
29.11.2012 13:55 0,7 C 92 % 1001 hPa 0,0 l/m 23,0 km/h (4 Bft) N45 350 0 min 0 min -0,4 C -10,0 C
29.11.2012 14:10 0,7 C 92 % 1001 hPa 0,0 l/m 19,2 km/h (3 Bft) N-NW67.5 330 0 min 0 min -0,4 C -8,4 C
29.11.2012 14:25 0,8 C 92 % 1001 hPa 0,0 l/m 21,3 km/h (4 Bft) N-NW45 345 0 min 0 min -0,3 C -9,2 C
29.11.2012 14:40 0,7 C 92 % 1001 hPa 0,0 l/m 21,1 km/h (4 Bft) N67.5 355 0 min 0 min -0,4 C -9,2 C
29.11.2012 14:55 0,5 C 91 % 1001 hPa 0,0 l/m 19,3 km/h (3 Bft) N-NW45 340 0 min 0 min -0,8 C -8,7 C
29.11.2012 15:10 0,6 C 91 % 1001 hPa 0,0 l/m 20,3 km/h (4 Bft) N-NW67.5 340 0 min 0 min -0,7 C -9,0 C
29.11.2012 15:25 0,5 C 91 % 1001 hPa 0,0 l/m 17,7 km/h (3 Bft) NW45 325 0 min 0 min -0,8 C -7,9 C
29.11.2012 15:40 0,5 C 91 % 1001 hPa 0,0 l/m 14,0 km/h (3 Bft) N-NW45 340 0 min 0 min -0,8 C -5,8 C
29.11.2012 15:55 0,3 C 92 % 1002 hPa 0,0 l/m 10,6 km/h (2 Bft) N-NW67.5 340 0 min 0 min -0,8 C -3,6 C
29.11.2012 16:10 0,2 C 91 % 1002 hPa 0,0 l/m 23,0 km/h (4 Bft) N-NW45 335 0 min 0 min -1,1 C -10,7 C
29.11.2012 16:25 0,0 C 91 % 1002 hPa 0,0 l/m 23,9 km/h (4 Bft) N45 360 0 min 0 min -1,3 C -11,3 C
29.11.2012 16:40 -0,2 C 91 % 1002 hPa 0,0 l/m 23,1 km/h (4 Bft) N-NW22.5 335 0 min 0 min -1,5 C -11,2 C
29.11.2012 16:55 -0,3 C 91 % 1002 hPa 0,0 l/m 21,5 km/h (4 Bft) NW45 325 0 min 0 min -1,6 C -10,7 C
29.11.2012 17:10 -0,4 C 91 % 1002 hPa 0,0 l/m 20,1 km/h (4 Bft) N-NW45 335 0 min 0 min -1,7 C -10,2 C
29.11.2012 17:25 -0,4 C 91 % 1002 hPa 0,0 l/m 18,6 km/h (3 Bft) N-NW45 340 0 min 0 min -1,7 C -9,5 C
29.11.2012 17:40 -0,4 C 91 % 1002 hPa 0,0 l/m 17,0 km/h (3 Bft) N-NW45 345 0 min 0 min -1,7 C -8,6 C
29.11.2012 17:55 -0,4 C 91 % 1002 hPa 0,0 l/m 27,7 km/h (4 Bft) N-NW45 330 0 min 0 min -1,7 C -13,2 C
29.11.2012 18:10 -0,4 C 91 % 1002 hPa 0,0 l/m 17,1 km/h (3 Bft) NW45 325 0 min 0 min -1,7 C -8,7 C
29.11.2012 18:25 -0,4 C 91 % 1002 hPa 0,0 l/m 17,8 km/h (3 Bft) NW45 325 0 min 0 min -1,7 C -9,1 C
29.11.2012 18:40 -0,6 C 91 % 1002 hPa 0,0 l/m 15,5 km/h (3 Bft) NW67.5 325 0 min 0 min -1,9 C -8,0 C
29.11.2012 18:55 -0,6 C 91 % 1002 hPa 0,0 l/m 18,4 km/h (3 Bft) NW45 310 0 min 0 min -1,9 C -9,6 C
29.11.2012 19:10 -0,6 C 91 % 1002 hPa 0,0 l/m 11,9 km/h (2 Bft) N-NW45 340 0 min 0 min -1,9 C -5,6 C
29.11.2012 19:25 -0,5 C 91 % 1003 hPa 0,0 l/m 15,1 km/h (3 Bft) N-NW67.5 340 0 min 0 min -1,8 C -7,6 C
29.11.2012 19:40 -0,5 C 92 % 1003 hPa 0,0 l/m 10,6 km/h (2 Bft) NW67.5 320 0 min 0 min -1,6 C -4,5 C
29.11.2012 19:55 -0,4 C 92 % 1003 hPa 0,0 l/m 12,3 km/h (3 Bft) W-NW45 300 0 min 0 min -1,5 C -5,7 C
29.11.2012 20:10 -0,4 C 92 % 1003 hPa 0,0 l/m 14,3 km/h (3 Bft) N-NW45 335 0 min 0 min -1,5 C -7,0 C
29.11.2012 20:25 -0,5 C 91 % 1003 hPa 0,0 l/m 21,1 km/h (4 Bft) N-NW67.5 335 0 min 0 min -1,8 C -10,8 C
29.11.2012 20:40 -0,7 C 91 % 1003 hPa 0,0 l/m 17,2 km/h (3 Bft) NW45 325 0 min 0 min -2,0 C -9,1 C
29.11.2012 20:55 -0,8 C 92 % 1003 hPa 0,0 l/m 17,1 km/h (3 Bft) NW45 325 0 min 0 min -1,9 C -9,2 C
29.11.2012 21:10 -0,7 C 91 % 1003 hPa 0,0 l/m 20,6 km/h (4 Bft) N22.5 5 0 min 0 min -2,0 C -10,8 C
29.11.2012 21:25 -0,7 C 91 % 1003 hPa 0,0 l/m 20,4 km/h (4 Bft) N45 350 0 min 0 min -2,0 C -10,7 C
29.11.2012 21:40 -0,8 C 91 % 1003 hPa 0,0 l/m 18,5 km/h (3 Bft) NW45 320 0 min 0 min -2,1 C -9,9 C
29.11.2012 22:00 -0,7 C 91 % 1003 hPa 0,0 l/m 18,3 km/h (3 Bft) N-NW67.5 340 0 min 0 min -2,0 C -9,7 C
29.11.2012 22:16 -0,8 C 90 % 1003 hPa 0,0 l/m 18,3 km/h (3 Bft) N-NW45 340 0 min 0 min -2,2 C -9,8 C
29.11.2012 22:31 -0,9 C 91 % 1003 hPa 0,0 l/m 13,3 km/h (3 Bft) N22.5 360 0 min 0 min -2,2 C -7,0 C
29.11.2012 22:46 -1,0 C 91 % 1003 hPa 0,0 l/m 12,7 km/h (3 Bft) N-NW22.5 330 0 min 0 min -2,3 C -6,7 C
29.11.2012 23:00 -0,8 C 91 % 1003 hPa 0,0 l/m 16,0 km/h (3 Bft) N-NW67.5 330 0 min 0 min -2,1 C -8,6 C
29.11.2012 23:15 -0,8 C 91 % 1003 hPa 0,0 l/m 19,1 km/h (3 Bft) N22.5 355 0 min 0 min -2,1 C -10,2 C
29.11.2012 23:30 -0,9 C 91 % 1003 hPa 0,0 l/m 14,5 km/h (3 Bft) N45 360 0 min 0 min -2,2 C -7,8 C
29.11.2012 23:46 -1,0 C 91 % 1003 hPa 0,0 l/m 14,0 km/h (3 Bft) N45 360 0 min 0 min -2,3 C -7,6 C
_ Min-Zeit 22:46 10:24 01:39 - 11:40 - - - - 22:46 06:24
Minimum _ -1,0 C 88 % 1000 hPa - 1,5 km/h (1 Bft) - - - - -2,3 C -15,7 C
_ Max-Zeit 00:46 00:01 19:25 01:54 00:16 - - 00:01 01:54 00:46 11:40
Maximum _ 1,5 C 97 % 1003 hPa 0,3 l/m 37,9 km/h
N (5 Bft)
- - 0 min 15 min 1,1 C 0,4 C
Durchschnitt _ 0,2 C 92 % 1001 hPa #0,3 l/m 22,9 km/h (4 Bft) N - #0 min. #15 min. -0,9 C -10,1 C